sensor_id;sensor_type;location;lat;lon;timestamp;P1;durP1;ratioP1;P2;durP2;ratioP2
9801;SDS011;4940;50.900;4.672;2022-10-01T00:01:05;7.75;;;4.22;;
9801;SDS011;4940;50.900;4.672;2022-10-01T00:03:34;6.50;;;3.80;;
9801;SDS011;4940;50.900;4.672;2022-10-01T00:06:02;5.75;;;3.85;;
9801;SDS011;4940;50.900;4.672;2022-10-01T00:08:33;5.75;;;4.05;;
9801;SDS011;4940;50.900;4.672;2022-10-01T00:11:05;6.35;;;3.97;;
9801;SDS011;4940;50.900;4.672;2022-10-01T00:13:33;7.82;;;3.65;;
9801;SDS011;4940;50.900;4.672;2022-10-01T00:16:04;7.18;;;3.90;;
9801;SDS011;4940;50.900;4.672;2022-10-01T00:18:34;5.25;;;4.00;;
9801;SDS011;4940;50.900;4.672;2022-10-01T00:21:05;6.10;;;3.63;;
9801;SDS011;4940;50.900;4.672;2022-10-01T00:23:33;5.82;;;3.65;;
9801;SDS011;4940;50.900;4.672;2022-10-01T00:26:07;5.93;;;3.75;;
9801;SDS011;4940;50.900;4.672;2022-10-01T00:28:36;5.95;;;3.60;;
9801;SDS011;4940;50.900;4.672;2022-10-01T00:31:06;7.32;;;3.55;;
9801;SDS011;4940;50.900;4.672;2022-10-01T00:33:34;5.47;;;3.72;;
9801;SDS011;4940;50.900;4.672;2022-10-01T00:36:01;5.43;;;3.70;;
9801;SDS011;4940;50.900;4.672;2022-10-01T00:38:29;6.22;;;3.55;;
9801;SDS011;4940;50.900;4.672;2022-10-01T00:40:56;7.47;;;3.20;;
9801;SDS011;4940;50.900;4.672;2022-10-01T00:43:25;6.07;;;3.42;;
9801;SDS011;4940;50.900;4.672;2022-10-01T00:45:54;4.80;;;2.80;;
9801;SDS011;4940;50.900;4.672;2022-10-01T00:48:26;5.38;;;3.30;;
9801;SDS011;4940;50.900;4.672;2022-10-01T00:50:55;4.63;;;2.72;;
9801;SDS011;4940;50.900;4.672;2022-10-01T00:53:23;6.07;;;2.80;;
9801;SDS011;4940;50.900;4.672;2022-10-01T00:55:52;4.10;;;2.40;;
9801;SDS011;4940;50.900;4.672;2022-10-01T00:58:21;3.70;;;2.35;;
9801;SDS011;4940;50.900;4.672;2022-10-01T01:00:50;4.65;;;2.10;;
9801;SDS011;4940;50.900;4.672;2022-10-01T01:03:19;5.30;;;2.42;;
9801;SDS011;4940;50.900;4.672;2022-10-01T01:05:48;2.80;;;2.38;;
9801;SDS011;4940;50.900;4.672;2022-10-01T01:08:15;3.25;;;2.10;;
9801;SDS011;4940;50.900;4.672;2022-10-01T01:10:44;2.83;;;2.13;;
9801;SDS011;4940;50.900;4.672;2022-10-01T01:13:20;3.72;;;1.98;;
9801;SDS011;4940;50.900;4.672;2022-10-01T01:15:52;3.35;;;2.22;;
9801;SDS011;4940;50.900;4.672;2022-10-01T01:18:25;3.65;;;1.92;;
9801;SDS011;4940;50.900;4.672;2022-10-01T01:21:04;2.38;;;1.90;;
9801;SDS011;4940;50.900;4.672;2022-10-01T01:26:50;5.05;;;1.90;;
9801;SDS011;4940;50.900;4.672;2022-10-01T01:29:28;3.38;;;1.92;;
9801;SDS011;4940;50.900;4.672;2022-10-01T01:32:03;2.58;;;1.80;;
9801;SDS011;4940;50.900;4.672;2022-10-01T01:34:34;1.65;;;1.42;;
9801;SDS011;4940;50.900;4.672;2022-10-01T01:37:05;3.42;;;1.40;;
9801;SDS011;4940;50.900;4.672;2022-10-01T01:39:37;2.10;;;1.50;;
9801;SDS011;4940;50.900;4.672;2022-10-01T01:42:08;1.92;;;1.60;;
9801;SDS011;4940;50.900;4.672;2022-10-01T01:44:41;2.80;;;1.42;;
9801;SDS011;4940;50.900;4.672;2022-10-01T01:47:10;2.63;;;1.67;;
9801;SDS011;4940;50.900;4.672;2022-10-01T01:49:39;2.47;;;1.20;;
9801;SDS011;4940;50.900;4.672;2022-10-01T01:52:07;1.52;;;1.40;;
9801;SDS011;4940;50.900;4.672;2022-10-01T01:54:37;1.98;;;1.30;;
9801;SDS011;4940;50.900;4.672;2022-10-01T01:57:05;2.92;;;1.60;;
9801;SDS011;4940;50.900;4.672;2022-10-01T01:59:34;1.35;;;1.25;;
9801;SDS011;4940;50.900;4.672;2022-10-01T02:02:03;1.98;;;1.08;;
9801;SDS011;4940;50.900;4.672;2022-10-01T02:04:33;1.20;;;1.10;;
9801;SDS011;4940;50.900;4.672;2022-10-01T02:07:17;2.95;;;1.27;;
9801;SDS011;4940;50.900;4.672;2022-10-01T02:10:07;1.80;;;0.98;;
9801;SDS011;4940;50.900;4.672;2022-10-01T02:12:45;1.02;;;0.93;;
9801;SDS011;4940;50.900;4.672;2022-10-01T02:15:21;1.08;;;0.98;;
9801;SDS011;4940;50.900;4.672;2022-10-01T02:17:56;1.10;;;1.00;;
9801;SDS011;4940;50.900;4.672;2022-10-01T02:20:30;1.00;;;0.90;;
9801;SDS011;4940;50.900;4.672;2022-10-01T02:23:04;1.42;;;0.75;;
9801;SDS011;4940;50.900;4.672;2022-10-01T02:25:35;1.70;;;0.82;;
9801;SDS011;4940;50.900;4.672;2022-10-01T02:28:06;1.33;;;0.90;;
9801;SDS011;4940;50.900;4.672;2022-10-01T02:30:35;2.42;;;1.00;;
9801;SDS011;4940;50.900;4.672;2022-10-01T02:33:06;1.35;;;0.77;;
9801;SDS011;4940;50.900;4.672;2022-10-01T02:35:34;0.63;;;0.63;;
9801;SDS011;4940;50.900;4.672;2022-10-01T02:38:03;0.70;;;0.70;;
9801;SDS011;4940;50.900;4.672;2022-10-01T02:40:33;1.65;;;0.80;;
9801;SDS011;4940;50.900;4.672;2022-10-01T02:43:04;0.68;;;0.63;;
9801;SDS011;4940;50.900;4.672;2022-10-01T02:45:34;2.90;;;0.90;;
9801;SDS011;4940;50.900;4.672;2022-10-01T02:48:06;0.70;;;0.55;;
9801;SDS011;4940;50.900;4.672;2022-10-01T02:50:42;0.80;;;0.80;;
9801;SDS011;4940;50.900;4.672;2022-10-01T02:53:15;0.55;;;0.55;;
9801;SDS011;4940;50.900;4.672;2022-10-01T02:55:47;0.90;;;0.70;;
9801;SDS011;4940;50.900;4.672;2022-10-01T02:58:16;0.52;;;0.52;;
9801;SDS011;4940;50.900;4.672;2022-10-01T03:00:44;0.75;;;0.60;;
9801;SDS011;4940;50.900;4.672;2022-10-01T03:03:12;0.77;;;0.70;;
9801;SDS011;4940;50.900;4.672;2022-10-01T03:05:39;1.45;;;0.70;;
9801;SDS011;4940;50.900;4.672;2022-10-01T03:08:06;1.02;;;0.63;;
9801;SDS011;4940;50.900;4.672;2022-10-01T03:10:34;0.60;;;0.50;;
9801;SDS011;4940;50.900;4.672;2022-10-01T03:13:01;0.50;;;0.50;;
9801;SDS011;4940;50.900;4.672;2022-10-01T03:15:30;1.10;;;0.50;;
9801;SDS011;4940;50.900;4.672;2022-10-01T03:17:58;0.65;;;0.65;;
9801;SDS011;4940;50.900;4.672;2022-10-01T03:20:26;2.35;;;0.70;;
9801;SDS011;4940;50.900;4.672;2022-10-01T03:22:53;1.65;;;0.75;;
9801;SDS011;4940;50.900;4.672;2022-10-01T03:25:21;1.30;;;0.75;;
9801;SDS011;4940;50.900;4.672;2022-10-01T03:27:49;0.57;;;0.57;;
9801;SDS011;4940;50.900;4.672;2022-10-01T03:30:16;0.77;;;0.70;;
9801;SDS011;4940;50.900;4.672;2022-10-01T03:32:43;0.65;;;0.65;;
9801;SDS011;4940;50.900;4.672;2022-10-01T03:35:11;1.00;;;0.90;;
9801;SDS011;4940;50.900;4.672;2022-10-01T03:37:40;0.93;;;0.82;;
9801;SDS011;4940;50.900;4.672;2022-10-01T03:40:07;1.20;;;0.90;;
9801;SDS011;4940;50.900;4.672;2022-10-01T03:42:35;0.90;;;0.90;;
9801;SDS011;4940;50.900;4.672;2022-10-01T03:45:02;1.10;;;0.88;;
9801;SDS011;4940;50.900;4.672;2022-10-01T03:47:29;0.75;;;0.75;;
9801;SDS011;4940;50.900;4.672;2022-10-01T03:49:57;1.88;;;1.05;;
9801;SDS011;4940;50.900;4.672;2022-10-01T03:52:24;1.00;;;0.90;;
9801;SDS011;4940;50.900;4.672;2022-10-01T03:54:53;0.93;;;0.88;;
9801;SDS011;4940;50.900;4.672;2022-10-01T03:57:21;1.00;;;0.90;;
9801;SDS011;4940;50.900;4.672;2022-10-01T03:59:49;1.08;;;1.00;;
9801;SDS011;4940;50.900;4.672;2022-10-01T04:02:16;1.17;;;0.80;;
9801;SDS011;4940;50.900;4.672;2022-10-01T04:04:44;1.08;;;0.80;;
9801;SDS011;4940;50.900;4.672;2022-10-01T04:07:15;1.17;;;1.05;;
9801;SDS011;4940;50.900;4.672;2022-10-01T04:09:43;1.08;;;1.00;;
9801;SDS011;4940;50.900;4.672;2022-10-01T04:13:37;1.00;;;0.95;;
9801;SDS011;4940;50.900;4.672;2022-10-01T04:16:05;1.38;;;1.27;;
9801;SDS011;4940;50.900;4.672;2022-10-01T04:18:33;1.17;;;1.08;;
9801;SDS011;4940;50.900;4.672;2022-10-01T04:21:03;1.83;;;1.13;;
9801;SDS011;4940;50.900;4.672;2022-10-01T04:23:30;1.20;;;1.10;;
9801;SDS011;4940;50.900;4.672;2022-10-01T04:25:58;1.27;;;1.17;;
9801;SDS011;4940;50.900;4.672;2022-10-01T04:28:26;1.90;;;1.10;;
9801;SDS011;4940;50.900;4.672;2022-10-01T04:30:56;1.40;;;1.25;;
9801;SDS011;4940;50.900;4.672;2022-10-01T04:33:37;1.52;;;1.10;;
9801;SDS011;4940;50.900;4.672;2022-10-01T04:36:05;0.88;;;0.88;;
9801;SDS011;4940;50.900;4.672;2022-10-01T04:38:33;1.00;;;0.90;;
9801;SDS011;4940;50.900;4.672;2022-10-01T04:41:03;1.35;;;1.00;;
9801;SDS011;4940;50.900;4.672;2022-10-01T04:43:44;0.93;;;0.82;;
9801;SDS011;4940;50.900;4.672;2022-10-01T04:46:13;0.70;;;0.70;;
9801;SDS011;4940;50.900;4.672;2022-10-01T04:48:40;2.05;;;1.00;;
9801;SDS011;4940;50.900;4.672;2022-10-01T04:51:08;0.80;;;0.80;;
9801;SDS011;4940;50.900;4.672;2022-10-01T04:53:35;1.00;;;0.90;;
9801;SDS011;4940;50.900;4.672;2022-10-01T04:56:03;0.90;;;0.90;;
9801;SDS011;4940;50.900;4.672;2022-10-01T04:58:30;1.30;;;1.20;;
9801;SDS011;4940;50.900;4.672;2022-10-01T05:00:58;1.33;;;0.98;;
9801;SDS011;4940;50.900;4.672;2022-10-01T05:03:27;1.40;;;1.30;;
9801;SDS011;4940;50.900;4.672;2022-10-01T05:05:55;1.67;;;1.10;;
9801;SDS011;4940;50.900;4.672;2022-10-01T05:08:23;1.77;;;1.50;;
9801;SDS011;4940;50.900;4.672;2022-10-01T05:10:53;2.92;;;1.33;;
9801;SDS011;4940;50.900;4.672;2022-10-01T05:13:21;1.40;;;1.30;;
9801;SDS011;4940;50.900;4.672;2022-10-01T05:15:55;2.55;;;1.60;;
9801;SDS011;4940;50.900;4.672;2022-10-01T05:18:22;2.20;;;1.70;;
9801;SDS011;4940;50.900;4.672;2022-10-01T05:20:51;1.98;;;1.50;;
9801;SDS011;4940;50.900;4.672;2022-10-01T05:23:26;1.90;;;1.80;;
9801;SDS011;4940;50.900;4.672;2022-10-01T05:25:54;5.22;;;2.10;;
9801;SDS011;4940;50.900;4.672;2022-10-01T05:28:25;2.35;;;1.80;;
9801;SDS011;4940;50.900;4.672;2022-10-01T05:30:52;2.00;;;1.80;;
9801;SDS011;4940;50.900;4.672;2022-10-01T05:33:20;2.60;;;2.08;;
9801;SDS011;4940;50.900;4.672;2022-10-01T05:35:48;2.33;;;1.98;;
9801;SDS011;4940;50.900;4.672;2022-10-01T05:38:17;2.25;;;2.05;;
9801;SDS011;4940;50.900;4.672;2022-10-01T05:40:45;3.05;;;1.95;;
9801;SDS011;4940;50.900;4.672;2022-10-01T05:43:12;2.50;;;2.00;;
9801;SDS011;4940;50.900;4.672;2022-10-01T05:45:39;3.10;;;2.10;;
9801;SDS011;4940;50.900;4.672;2022-10-01T05:48:07;2.03;;;1.90;;
9801;SDS011;4940;50.900;4.672;2022-10-01T05:50:36;2.67;;;1.95;;
9801;SDS011;4940;50.900;4.672;2022-10-01T05:53:05;3.35;;;2.00;;
9801;SDS011;4940;50.900;4.672;2022-10-01T05:55:34;4.43;;;2.10;;
9801;SDS011;4940;50.900;4.672;2022-10-01T05:58:02;2.20;;;1.92;;
9801;SDS011;4940;50.900;4.672;2022-10-01T06:00:31;3.20;;;1.73;;
9801;SDS011;4940;50.900;4.672;2022-10-01T06:02:59;2.00;;;1.77;;
9801;SDS011;4940;50.900;4.672;2022-10-01T06:05:28;3.13;;;1.75;;
9801;SDS011;4940;50.900;4.672;2022-10-01T06:07:56;2.08;;;1.77;;
9801;SDS011;4940;50.900;4.672;2022-10-01T06:10:24;3.80;;;1.70;;
9801;SDS011;4940;50.900;4.672;2022-10-01T06:12:58;3.22;;;1.85;;
9801;SDS011;4940;50.900;4.672;2022-10-01T06:15:26;3.45;;;2.08;;
9801;SDS011;4940;50.900;4.672;2022-10-01T06:17:53;2.30;;;2.10;;
9801;SDS011;4940;50.900;4.672;2022-10-01T06:20:21;2.13;;;1.77;;
9801;SDS011;4940;50.900;4.672;2022-10-01T06:22:52;2.85;;;2.13;;
9801;SDS011;4940;50.900;4.672;2022-10-01T06:25:20;2.97;;;1.83;;
9801;SDS011;4940;50.900;4.672;2022-10-01T06:27:50;1.92;;;1.73;;
9801;SDS011;4940;50.900;4.672;2022-10-01T06:30:20;2.08;;;1.67;;
9801;SDS011;4940;50.900;4.672;2022-10-01T06:32:47;5.75;;;2.30;;
9801;SDS011;4940;50.900;4.672;2022-10-01T06:35:14;3.50;;;2.03;;
9801;SDS011;4940;50.900;4.672;2022-10-01T06:37:44;7.05;;;1.98;;
9801;SDS011;4940;50.900;4.672;2022-10-01T06:40:11;3.97;;;1.55;;
9801;SDS011;4940;50.900;4.672;2022-10-01T06:42:39;2.28;;;2.00;;
9801;SDS011;4940;50.900;4.672;2022-10-01T06:45:12;5.50;;;2.35;;
9801;SDS011;4940;50.900;4.672;2022-10-01T06:47:41;6.15;;;2.20;;
9801;SDS011;4940;50.900;4.672;2022-10-01T06:50:08;4.45;;;2.00;;
9801;SDS011;4940;50.900;4.672;2022-10-01T06:52:35;4.43;;;2.17;;
9801;SDS011;4940;50.900;4.672;2022-10-01T06:55:15;8.68;;;2.10;;
9801;SDS011;4940;50.900;4.672;2022-10-01T06:57:42;6.00;;;2.42;;
9801;SDS011;4940;50.900;4.672;2022-10-01T07:00:10;4.70;;;1.60;;
9801;SDS011;4940;50.900;4.672;2022-10-01T07:02:38;4.85;;;2.00;;
9801;SDS011;4940;50.900;4.672;2022-10-01T07:05:07;4.65;;;1.77;;
9801;SDS011;4940;50.900;4.672;2022-10-01T07:07:35;3.58;;;1.83;;
9801;SDS011;4940;50.900;4.672;2022-10-01T07:10:03;4.78;;;2.20;;
9801;SDS011;4940;50.900;4.672;2022-10-01T07:12:31;3.25;;;2.33;;
9801;SDS011;4940;50.900;4.672;2022-10-01T07:14:59;7.22;;;2.97;;
9801;SDS011;4940;50.900;4.672;2022-10-01T07:17:26;8.07;;;2.85;;
9801;SDS011;4940;50.900;4.672;2022-10-01T07:19:55;6.32;;;2.90;;
9801;SDS011;4940;50.900;4.672;2022-10-01T07:22:22;7.70;;;3.55;;
9801;SDS011;4940;50.900;4.672;2022-10-01T07:24:49;10.20;;;3.70;;
9801;SDS011;4940;50.900;4.672;2022-10-01T07:27:18;10.65;;;4.32;;
9801;SDS011;4940;50.900;4.672;2022-10-01T07:29:45;7.38;;;4.00;;
9801;SDS011;4940;50.900;4.672;2022-10-01T07:32:12;8.10;;;4.38;;
9801;SDS011;4940;50.900;4.672;2022-10-01T07:34:40;10.02;;;5.18;;
9801;SDS011;4940;50.900;4.672;2022-10-01T07:37:09;11.18;;;4.60;;
9801;SDS011;4940;50.900;4.672;2022-10-01T07:39:36;13.80;;;4.75;;
9801;SDS011;4940;50.900;4.672;2022-10-01T07:42:04;10.13;;;4.30;;
9801;SDS011;4940;50.900;4.672;2022-10-01T07:44:31;9.23;;;4.20;;
9801;SDS011;4940;50.900;4.672;2022-10-01T07:46:58;7.93;;;5.07;;
9801;SDS011;4940;50.900;4.672;2022-10-01T07:49:26;9.45;;;4.93;;
9801;SDS011;4940;50.900;4.672;2022-10-01T07:51:56;8.70;;;4.35;;
9801;SDS011;4940;50.900;4.672;2022-10-01T07:54:25;14.68;;;5.18;;
9801;SDS011;4940;50.900;4.672;2022-10-01T07:56:52;8.77;;;5.10;;
9801;SDS011;4940;50.900;4.672;2022-10-01T07:59:21;10.20;;;4.45;;
9801;SDS011;4940;50.900;4.672;2022-10-01T08:01:49;10.75;;;4.90;;
9801;SDS011;4940;50.900;4.672;2022-10-01T08:04:16;10.10;;;4.50;;
9801;SDS011;4940;50.900;4.672;2022-10-01T08:07:02;15.57;;;5.78;;
9801;SDS011;4940;50.900;4.672;2022-10-01T08:09:31;16.20;;;5.82;;
9801;SDS011;4940;50.900;4.672;2022-10-01T08:11:58;12.15;;;6.00;;
9801;SDS011;4940;50.900;4.672;2022-10-01T08:14:26;8.13;;;5.18;;
9801;SDS011;4940;50.900;4.672;2022-10-01T08:16:54;10.55;;;5.20;;
9801;SDS011;4940;50.900;4.672;2022-10-01T08:19:21;11.45;;;5.10;;
9801;SDS011;4940;50.900;4.672;2022-10-01T08:21:49;12.05;;;4.80;;
9801;SDS011;4940;50.900;4.672;2022-10-01T08:24:16;10.27;;;4.63;;
9801;SDS011;4940;50.900;4.672;2022-10-01T08:26:51;11.25;;;4.40;;
9801;SDS011;4940;50.900;4.672;2022-10-01T08:29:20;10.73;;;4.18;;
9801;SDS011;4940;50.900;4.672;2022-10-01T08:31:48;7.95;;;3.88;;
9801;SDS011;4940;50.900;4.672;2022-10-01T08:34:15;12.93;;;4.35;;
9801;SDS011;4940;50.900;4.672;2022-10-01T08:36:42;9.20;;;3.42;;
9801;SDS011;4940;50.900;4.672;2022-10-01T08:39:10;9.05;;;3.55;;
9801;SDS011;4940;50.900;4.672;2022-10-01T08:41:41;7.78;;;3.15;;
9801;SDS011;4940;50.900;4.672;2022-10-01T08:44:19;7.05;;;2.90;;
9801;SDS011;4940;50.900;4.672;2022-10-01T08:46:52;7.18;;;2.70;;
9801;SDS011;4940;50.900;4.672;2022-10-01T08:49:22;7.57;;;2.70;;
9801;SDS011;4940;50.900;4.672;2022-10-01T08:51:53;11.55;;;3.17;;
9801;SDS011;4940;50.900;4.672;2022-10-01T08:54:29;9.57;;;3.15;;
9801;SDS011;4940;50.900;4.672;2022-10-01T08:57:00;6.80;;;2.72;;
9801;SDS011;4940;50.900;4.672;2022-10-01T08:59:32;6.40;;;2.78;;
9801;SDS011;4940;50.900;4.672;2022-10-01T09:02:10;9.15;;;2.92;;
9801;SDS011;4940;50.900;4.672;2022-10-01T09:04:45;8.63;;;2.70;;
9801;SDS011;4940;50.900;4.672;2022-10-01T09:07:16;9.43;;;2.72;;
9801;SDS011;4940;50.900;4.672;2022-10-01T09:09:56;9.13;;;2.92;;
9801;SDS011;4940;50.900;4.672;2022-10-01T09:12:34;6.55;;;2.63;;
9801;SDS011;4940;50.900;4.672;2022-10-01T09:15:13;11.35;;;3.38;;
9801;SDS011;4940;50.900;4.672;2022-10-01T09:17:53;12.13;;;2.90;;
9801;SDS011;4940;50.900;4.672;2022-10-01T09:20:24;7.25;;;3.03;;
9801;SDS011;4940;50.900;4.672;2022-10-01T09:22:56;12.35;;;3.67;;
9801;SDS011;4940;50.900;4.672;2022-10-01T09:25:31;6.63;;;2.58;;
9801;SDS011;4940;50.900;4.672;2022-10-01T09:28:06;9.90;;;3.17;;
9801;SDS011;4940;50.900;4.672;2022-10-01T09:30:41;6.95;;;3.08;;
9801;SDS011;4940;50.900;4.672;2022-10-01T09:33:15;12.10;;;3.28;;
9801;SDS011;4940;50.900;4.672;2022-10-01T09:35:45;9.52;;;3.65;;
9801;SDS011;4940;50.900;4.672;2022-10-01T09:38:19;13.07;;;3.58;;
9801;SDS011;4940;50.900;4.672;2022-10-01T09:40:51;11.85;;;3.67;;
9801;SDS011;4940;50.900;4.672;2022-10-01T09:43:19;8.38;;;3.47;;
9801;SDS011;4940;50.900;4.672;2022-10-01T09:45:49;9.38;;;3.28;;
9801;SDS011;4940;50.900;4.672;2022-10-01T09:48:19;8.25;;;2.80;;
9801;SDS011;4940;50.900;4.672;2022-10-01T09:50:55;7.90;;;2.97;;
9801;SDS011;4940;50.900;4.672;2022-10-01T09:53:29;7.18;;;3.15;;
9801;SDS011;4940;50.900;4.672;2022-10-01T09:56:02;6.00;;;3.00;;
9801;SDS011;4940;50.900;4.672;2022-10-01T09:58:35;8.27;;;3.13;;
9801;SDS011;4940;50.900;4.672;2022-10-01T10:03:51;6.28;;;2.50;;
9801;SDS011;4940;50.900;4.672;2022-10-01T10:06:20;3.80;;;2.45;;
9801;SDS011;4940;50.900;4.672;2022-10-01T10:08:51;10.00;;;2.80;;
9801;SDS011;4940;50.900;4.672;2022-10-01T10:11:20;6.53;;;3.17;;
9801;SDS011;4940;50.900;4.672;2022-10-01T10:13:49;5.07;;;2.47;;
9801;SDS011;4940;50.900;4.672;2022-10-01T10:16:18;7.50;;;2.60;;
9801;SDS011;4940;50.900;4.672;2022-10-01T10:18:52;7.45;;;2.40;;
9801;SDS011;4940;50.900;4.672;2022-10-01T10:21:22;7.57;;;2.30;;
9801;SDS011;4940;50.900;4.672;2022-10-01T10:23:52;4.85;;;2.50;;
9801;SDS011;4940;50.900;4.672;2022-10-01T10:26:24;5.85;;;2.30;;
9801;SDS011;4940;50.900;4.672;2022-10-01T10:28:53;6.38;;;2.45;;
9801;SDS011;4940;50.900;4.672;2022-10-01T10:31:22;5.55;;;2.65;;
9801;SDS011;4940;50.900;4.672;2022-10-01T10:33:52;8.43;;;2.67;;
9801;SDS011;4940;50.900;4.672;2022-10-01T10:36:25;5.47;;;2.50;;
9801;SDS011;4940;50.900;4.672;2022-10-01T10:38:54;6.53;;;2.42;;
9801;SDS011;4940;50.900;4.672;2022-10-01T10:41:23;6.45;;;2.80;;
9801;SDS011;4940;50.900;4.672;2022-10-01T10:43:54;5.70;;;2.70;;
9801;SDS011;4940;50.900;4.672;2022-10-01T10:46:27;8.63;;;2.75;;
9801;SDS011;4940;50.900;4.672;2022-10-01T10:49:00;5.68;;;2.60;;
9801;SDS011;4940;50.900;4.672;2022-10-01T10:51:43;5.15;;;2.67;;
9801;SDS011;4940;50.900;4.672;2022-10-01T10:54:18;8.77;;;2.40;;
9801;SDS011;4940;50.900;4.672;2022-10-01T10:56:54;6.75;;;2.72;;
9801;SDS011;4940;50.900;4.672;2022-10-01T10:59:30;9.85;;;3.17;;
9801;SDS011;4940;50.900;4.672;2022-10-01T11:01:59;3.50;;;2.25;;
9801;SDS011;4940;50.900;4.672;2022-10-01T11:04:31;6.18;;;2.45;;
9801;SDS011;4940;50.900;4.672;2022-10-01T11:07:05;4.90;;;2.50;;
9801;SDS011;4940;50.900;4.672;2022-10-01T11:09:39;8.15;;;2.90;;
9801;SDS011;4940;50.900;4.672;2022-10-01T11:12:21;6.13;;;2.67;;
9801;SDS011;4940;50.900;4.672;2022-10-01T11:15:09;8.43;;;3.30;;
9801;SDS011;4940;50.900;4.672;2022-10-01T11:18:00;7.40;;;3.00;;
9801;SDS011;4940;50.900;4.672;2022-10-01T11:20:52;8.55;;;2.60;;
9801;SDS011;4940;50.900;4.672;2022-10-01T11:23:46;8.73;;;2.80;;
9801;SDS011;4940;50.900;4.672;2022-10-01T11:26:28;6.97;;;3.20;;
9801;SDS011;4940;50.900;4.672;2022-10-01T11:29:07;7.07;;;3.33;;
9801;SDS011;4940;50.900;4.672;2022-10-01T11:31:42;12.02;;;4.03;;
9801;SDS011;4940;50.900;4.672;2022-10-01T11:34:29;11.18;;;3.67;;
9801;SDS011;4940;50.900;4.672;2022-10-01T11:37:07;7.97;;;3.40;;
9801;SDS011;4940;50.900;4.672;2022-10-01T11:39:41;7.35;;;3.03;;
9801;SDS011;4940;50.900;4.672;2022-10-01T11:42:13;9.60;;;3.10;;
9801;SDS011;4940;50.900;4.672;2022-10-01T11:44:44;8.15;;;3.10;;
9801;SDS011;4940;50.900;4.672;2022-10-01T11:47:18;10.13;;;2.97;;
9801;SDS011;4940;50.900;4.672;2022-10-01T11:49:51;8.10;;;3.30;;
9801;SDS011;4940;50.900;4.672;2022-10-01T11:52:28;7.72;;;2.67;;
9801;SDS011;4940;50.900;4.672;2022-10-01T11:55:05;7.55;;;2.90;;
9801;SDS011;4940;50.900;4.672;2022-10-01T11:57:57;5.97;;;3.00;;
9801;SDS011;4940;50.900;4.672;2022-10-01T12:00:53;8.55;;;3.10;;
9801;SDS011;4940;50.900;4.672;2022-10-01T12:03:27;8.55;;;2.83;;
9801;SDS011;4940;50.900;4.672;2022-10-01T12:06:01;5.72;;;2.67;;
9801;SDS011;4940;50.900;4.672;2022-10-01T12:08:34;6.72;;;3.17;;
9801;SDS011;4940;50.900;4.672;2022-10-01T12:11:06;6.45;;;3.00;;
9801;SDS011;4940;50.900;4.672;2022-10-01T12:13:41;10.05;;;2.42;;
9801;SDS011;4940;50.900;4.672;2022-10-01T12:16:12;11.18;;;2.67;;
9801;SDS011;4940;50.900;4.672;2022-10-01T12:18:46;7.10;;;2.25;;
9801;SDS011;4940;50.900;4.672;2022-10-01T12:21:19;8.93;;;2.50;;
9801;SDS011;4940;50.900;4.672;2022-10-01T12:23:53;4.05;;;2.08;;
9801;SDS011;4940;50.900;4.672;2022-10-01T12:26:25;8.90;;;2.40;;
9801;SDS011;4940;50.900;4.672;2022-10-01T12:29:01;5.80;;;2.08;;
9801;SDS011;4940;50.900;4.672;2022-10-01T12:31:35;8.07;;;2.00;;
9801;SDS011;4940;50.900;4.672;2022-10-01T12:34:10;4.95;;;2.00;;
9801;SDS011;4940;50.900;4.672;2022-10-01T12:36:44;5.45;;;1.98;;
9801;SDS011;4940;50.900;4.672;2022-10-01T12:39:28;6.13;;;1.85;;
9801;SDS011;4940;50.900;4.672;2022-10-01T12:42:10;7.00;;;2.25;;
9801;SDS011;4940;50.900;4.672;2022-10-01T12:44:57;6.40;;;1.92;;
9801;SDS011;4940;50.900;4.672;2022-10-01T12:47:38;7.50;;;2.20;;
9801;SDS011;4940;50.900;4.672;2022-10-01T12:50:16;6.80;;;2.00;;
9801;SDS011;4940;50.900;4.672;2022-10-01T12:52:56;3.33;;;1.83;;
9801;SDS011;4940;50.900;4.672;2022-10-01T12:55:52;4.72;;;1.75;;
9801;SDS011;4940;50.900;4.672;2022-10-01T12:58:36;7.97;;;1.60;;
9801;SDS011;4940;50.900;4.672;2022-10-01T13:01:33;8.23;;;2.30;;
9801;SDS011;4940;50.900;4.672;2022-10-01T13:07:14;5.90;;;2.00;;
9801;SDS011;4940;50.900;4.672;2022-10-01T13:09:54;5.13;;;1.88;;
9801;SDS011;4940;50.900;4.672;2022-10-01T13:12:48;8.27;;;1.70;;
9801;SDS011;4940;50.900;4.672;2022-10-01T13:15:24;6.10;;;1.73;;
9801;SDS011;4940;50.900;4.672;2022-10-01T13:17:57;7.10;;;1.70;;
9801;SDS011;4940;50.900;4.672;2022-10-01T13:20:32;7.43;;;1.95;;
9801;SDS011;4940;50.900;4.672;2022-10-01T13:23:06;5.80;;;1.90;;
9801;SDS011;4940;50.900;4.672;2022-10-01T13:25:39;7.28;;;2.13;;
9801;SDS011;4940;50.900;4.672;2022-10-01T13:28:16;8.18;;;2.05;;
9801;SDS011;4940;50.900;4.672;2022-10-01T13:30:52;5.43;;;1.85;;
9801;SDS011;4940;50.900;4.672;2022-10-01T13:33:24;6.18;;;1.75;;
9801;SDS011;4940;50.900;4.672;2022-10-01T13:35:53;5.45;;;1.63;;
9801;SDS011;4940;50.900;4.672;2022-10-01T13:38:27;4.10;;;1.70;;
9801;SDS011;4940;50.900;4.672;2022-10-01T13:40:56;3.97;;;1.48;;
9801;SDS011;4940;50.900;4.672;2022-10-01T13:43:26;5.35;;;1.60;;
9801;SDS011;4940;50.900;4.672;2022-10-01T13:46:02;6.88;;;1.75;;
9801;SDS011;4940;50.900;4.672;2022-10-01T13:48:31;3.55;;;1.30;;
9801;SDS011;4940;50.900;4.672;2022-10-01T13:51:01;4.65;;;1.45;;
9801;SDS011;4940;50.900;4.672;2022-10-01T13:53:34;6.07;;;1.45;;
9801;SDS011;4940;50.900;4.672;2022-10-01T13:56:04;4.70;;;1.75;;
9801;SDS011;4940;50.900;4.672;2022-10-01T13:58:34;5.28;;;1.63;;
9801;SDS011;4940;50.900;4.672;2022-10-01T14:01:04;4.85;;;1.70;;
9801;SDS011;4940;50.900;4.672;2022-10-01T14:03:50;4.93;;;1.90;;
9801;SDS011;4940;50.900;4.672;2022-10-01T14:06:23;7.13;;;2.00;;
9801;SDS011;4940;50.900;4.672;2022-10-01T14:08:56;6.07;;;1.45;;
9801;SDS011;4940;50.900;4.672;2022-10-01T14:11:31;7.15;;;2.13;;
9801;SDS011;4940;50.900;4.672;2022-10-01T14:14:21;4.38;;;1.35;;
9801;SDS011;4940;50.900;4.672;2022-10-01T14:17:09;5.40;;;1.70;;
9801;SDS011;4940;50.900;4.672;2022-10-01T14:19:36;4.60;;;1.73;;
9801;SDS011;4940;50.900;4.672;2022-10-01T14:22:16;4.78;;;1.35;;
9801;SDS011;4940;50.900;4.672;2022-10-01T14:25:06;4.88;;;1.77;;
9801;SDS011;4940;50.900;4.672;2022-10-01T14:27:46;5.80;;;1.73;;
9801;SDS011;4940;50.900;4.672;2022-10-01T14:30:23;7.30;;;1.50;;
9801;SDS011;4940;50.900;4.672;2022-10-01T14:33:04;7.43;;;1.42;;
9801;SDS011;4940;50.900;4.672;2022-10-01T14:35:43;7.25;;;1.60;;
9801;SDS011;4940;50.900;4.672;2022-10-01T14:38:21;4.40;;;1.50;;
9801;SDS011;4940;50.900;4.672;2022-10-01T14:40:48;7.15;;;1.40;;
9801;SDS011;4940;50.900;4.672;2022-10-01T14:43:17;4.43;;;1.45;;
9801;SDS011;4940;50.900;4.672;2022-10-01T14:45:51;6.13;;;1.55;;
9801;SDS011;4940;50.900;4.672;2022-10-01T14:48:21;9.23;;;1.80;;
9801;SDS011;4940;50.900;4.672;2022-10-01T14:50:50;6.95;;;2.15;;
9801;SDS011;4940;50.900;4.672;2022-10-01T14:53:19;6.47;;;1.52;;
9801;SDS011;4940;50.900;4.672;2022-10-01T14:55:49;6.72;;;1.77;;
9801;SDS011;4940;50.900;4.672;2022-10-01T14:58:19;4.10;;;1.77;;
9801;SDS011;4940;50.900;4.672;2022-10-01T15:00:52;5.28;;;1.95;;
9801;SDS011;4940;50.900;4.672;2022-10-01T15:03:21;5.57;;;1.83;;
9801;SDS011;4940;50.900;4.672;2022-10-01T15:05:48;5.18;;;2.00;;
9801;SDS011;4940;50.900;4.672;2022-10-01T15:08:17;8.90;;;1.75;;
9801;SDS011;4940;50.900;4.672;2022-10-01T15:10:47;4.00;;;1.50;;
9801;SDS011;4940;50.900;4.672;2022-10-01T15:13:17;8.02;;;1.63;;
9801;SDS011;4940;50.900;4.672;2022-10-01T15:15:46;7.70;;;1.35;;
9801;SDS011;4940;50.900;4.672;2022-10-01T15:18:15;7.13;;;1.58;;
9801;SDS011;4940;50.900;4.672;2022-10-01T15:20:50;4.95;;;1.70;;
9801;SDS011;4940;50.900;4.672;2022-10-01T15:23:22;6.22;;;1.73;;
9801;SDS011;4940;50.900;4.672;2022-10-01T15:25:51;7.85;;;1.40;;
9801;SDS011;4940;50.900;4.672;2022-10-01T15:28:25;5.85;;;1.60;;
9801;SDS011;4940;50.900;4.672;2022-10-01T15:30:56;4.53;;;1.50;;
9801;SDS011;4940;50.900;4.672;2022-10-01T15:33:27;6.28;;;1.10;;
9801;SDS011;4940;50.900;4.672;2022-10-01T15:35:55;4.80;;;1.92;;
9801;SDS011;4940;50.900;4.672;2022-10-01T15:38:24;7.90;;;2.13;;
9801;SDS011;4940;50.900;4.672;2022-10-01T15:40:52;6.18;;;1.80;;
9801;SDS011;4940;50.900;4.672;2022-10-01T15:43:24;7.78;;;1.52;;
9801;SDS011;4940;50.900;4.672;2022-10-01T15:46:09;9.43;;;1.50;;
9801;SDS011;4940;50.900;4.672;2022-10-01T15:48:42;5.15;;;1.45;;
9801;SDS011;4940;50.900;4.672;2022-10-01T15:51:15;8.07;;;1.90;;
9801;SDS011;4940;50.900;4.672;2022-10-01T15:53:45;6.85;;;1.73;;